createdAt,value
2022-08-09T00:01:54.979Z,6.85
2022-08-09T00:04:34.502Z,6.43
2022-08-09T00:07:07.706Z,6.93
2022-08-09T00:09:47.721Z,6.97
2022-08-09T00:12:22.745Z,6.50
2022-08-09T00:14:54.447Z,6.47
2022-08-09T00:18:04.360Z,6.40
2022-08-09T00:20:17.010Z,6.70
2022-08-09T00:22:47.258Z,6.30
2022-08-09T00:25:23.450Z,6.47
2022-08-09T00:28:04.519Z,6.72
2022-08-09T00:30:32.829Z,7.00
2022-08-09T00:33:02.812Z,6.97
2022-08-09T00:35:43.349Z,6.40
2022-08-09T00:38:21.437Z,6.82
2022-08-09T00:40:53.968Z,7.63
2022-08-09T00:44:16.465Z,8.70
2022-08-09T00:46:11.419Z,9.60
2022-08-09T00:48:57.558Z,8.98
2022-08-09T00:51:27.639Z,8.75
2022-08-09T00:54:03.291Z,8.83
2022-08-09T00:56:31.132Z,8.77
2022-08-09T00:59:00.862Z,8.60
2022-08-09T01:01:44.551Z,8.30
2022-08-09T01:04:34.211Z,8.00
2022-08-09T01:07:12.288Z,8.02
2022-08-09T01:09:54.395Z,7.70
2022-08-09T01:12:35.557Z,7.60
2022-08-09T01:15:17.694Z,6.80
2022-08-09T01:17:59.637Z,6.47
2022-08-09T01:20:55.598Z,6.13
2022-08-09T01:24:03.160Z,6.20
2022-08-09T01:26:59.383Z,6.43
2022-08-09T01:29:41.394Z,5.80
2022-08-09T01:32:31.750Z,6.13
2022-08-09T01:35:07.014Z,6.40
2022-08-09T01:38:09.508Z,5.95
2022-08-09T01:40:52.787Z,6.45
2022-08-09T01:43:50.097Z,5.57
2022-08-09T01:46:24.891Z,6.38
2022-08-09T01:48:59.747Z,6.28
2022-08-09T01:51:32.166Z,6.40
2022-08-09T01:54:06.460Z,6.65
2022-08-09T01:56:38.286Z,7.07
2022-08-09T01:59:15.173Z,6.72
2022-08-09T02:01:58.604Z,6.35
2022-08-09T02:04:31.267Z,6.50
2022-08-09T02:08:35.853Z,6.55
2022-08-09T02:10:31.542Z,6.10
2022-08-09T02:13:09.606Z,6.30
2022-08-09T02:15:49.347Z,5.82
2022-08-09T02:18:24.225Z,6.45
2022-08-09T02:21:00.159Z,6.07
2022-08-09T02:23:45.517Z,6.60
2022-08-09T02:26:25.106Z,6.45
2022-08-09T02:28:57.918Z,6.57
2022-08-09T02:31:37.975Z,6.38
2022-08-09T02:34:13.810Z,6.40
2022-08-09T02:37:12.119Z,6.43
2022-08-09T02:39:49.920Z,5.95
2022-08-09T02:42:34.267Z,5.95
2022-08-09T02:45:14.019Z,6.50
2022-08-09T02:47:57.513Z,6.30
2022-08-09T02:50:34.832Z,5.72
2022-08-09T02:53:17.299Z,5.00
2022-08-09T02:56:00.073Z,5.30
2022-08-09T02:58:36.331Z,5.82
2022-08-09T03:01:10.864Z,5.25
2022-08-09T03:04:12.413Z,5.35
2022-08-09T03:06:31.763Z,5.50
2022-08-09T03:09:01.976Z,5.70
2022-08-09T03:12:05.971Z,5.53
2022-08-09T03:14:28.152Z,5.65
2022-08-09T03:16:58.336Z,5.53
2022-08-09T03:19:59.204Z,5.20
2022-08-09T03:22:24.980Z,5.35
2022-08-09T03:25:21.786Z,5.20
2022-08-09T03:27:56.730Z,5.70
2022-08-09T03:30:33.032Z,5.55
2022-08-09T03:33:12.741Z,5.32
2022-08-09T03:36:12.792Z,7.10
2022-08-09T03:38:44.630Z,8.25
2022-08-09T03:41:16.327Z,7.97
2022-08-09T03:44:08.565Z,8.13
2022-08-09T03:46:36.589Z,8.10
2022-08-09T03:49:07.883Z,8.30
2022-08-09T03:51:55.184Z,8.25
2022-08-09T03:54:31.384Z,8.85
2022-08-09T03:57:18.649Z,8.68
2022-08-09T03:59:55.470Z,8.23
2022-08-09T04:02:27.843Z,8.45
2022-08-09T04:05:00.935Z,8.18
2022-08-09T04:07:47.657Z,8.15
2022-08-09T04:10:29.719Z,7.35
2022-08-09T04:13:03.982Z,6.65
2022-08-09T04:15:52.085Z,7.70
2022-08-09T04:18:25.184Z,6.75
2022-08-09T04:21:05.693Z,7.57
2022-08-09T04:23:34.011Z,7.38
2022-08-09T04:26:02.517Z,6.97
2022-08-09T04:28:36.258Z,7.32
2022-08-09T04:31:09.355Z,7.30
2022-08-09T04:33:52.056Z,7.95
2022-08-09T04:36:24.513Z,8.70
2022-08-09T04:38:56.186Z,8.48
2022-08-09T04:41:32.326Z,8.63
2022-08-09T04:44:12.403Z,8.20
2022-08-09T04:46:59.148Z,8.48
2022-08-09T04:49:53.926Z,7.00
2022-08-09T04:52:42.416Z,7.05
2022-08-09T04:55:12.340Z,7.57
2022-08-09T04:57:54.463Z,7.65
2022-08-09T05:00:35.913Z,7.90
2022-08-09T05:03:30.141Z,7.40
2022-08-09T05:06:04.394Z,8.02
2022-08-09T05:08:35.187Z,7.82
2022-08-09T05:11:06.730Z,8.07
2022-08-09T05:13:38.652Z,7.68
2022-08-09T05:16:08.690Z,7.90
2022-08-09T05:18:57.461Z,8.18
2022-08-09T05:21:36.644Z,6.88
2022-08-09T05:24:15.925Z,6.85
2022-08-09T05:26:45.970Z,7.10
2022-08-09T05:29:31.576Z,5.70
2022-08-09T05:32:02.786Z,5.65
2022-08-09T05:34:34.304Z,6.00
2022-08-09T05:37:06.428Z,6.03
2022-08-09T05:39:43.258Z,5.88
2022-08-09T05:42:21.348Z,5.78
2022-08-09T05:44:54.494Z,6.07
2022-08-09T05:47:33.196Z,6.25
2022-08-09T05:50:26.628Z,5.72
2022-08-09T05:52:53.548Z,6.05
2022-08-09T05:55:24.274Z,5.90
2022-08-09T05:57:56.860Z,5.88
2022-08-09T06:00:29.078Z,5.93
2022-08-09T06:03:03.677Z,6.18
2022-08-09T06:05:56.958Z,6.30
2022-08-09T06:08:25.453Z,5.93
2022-08-09T06:10:55.742Z,6.05
2022-08-09T06:13:28.743Z,5.93
2022-08-09T06:16:04.756Z,7.05
2022-08-09T06:18:35.294Z,6.78
2022-08-09T06:21:06.936Z,6.72
2022-08-09T06:23:55.745Z,6.35
2022-08-09T06:26:28.496Z,6.50
2022-08-09T06:29:00.106Z,6.43
2022-08-09T06:31:40.457Z,7.18
2022-08-09T06:34:26.058Z,6.57
2022-08-09T06:37:00.063Z,7.38
2022-08-09T06:39:58.182Z,6.85
2022-08-09T06:42:24.386Z,7.68
2022-08-09T06:44:54.514Z,8.20
2022-08-09T06:47:24.119Z,7.93
2022-08-09T06:50:14.518Z,8.32
2022-08-09T06:52:56.179Z,8.10
2022-08-09T06:55:26.685Z,7.82
2022-08-09T06:58:03.198Z,8.07
2022-08-09T07:00:55.579Z,7.82
2022-08-09T07:03:27.874Z,7.07
2022-08-09T07:06:03.802Z,8.07
2022-08-09T07:08:37.238Z,7.90
2022-08-09T07:11:08.641Z,7.78
2022-08-09T07:13:45.399Z,7.65
2022-08-09T07:16:41.579Z,7.32
2022-08-09T07:19:22.863Z,7.53
2022-08-09T07:21:57.031Z,7.88
2022-08-09T07:24:40.234Z,7.05
2022-08-09T07:27:33.847Z,7.38
2022-08-09T07:30:02.374Z,7.38
2022-08-09T07:32:33.079Z,7.20
2022-08-09T07:35:10.225Z,7.03
2022-08-09T07:37:44.831Z,6.70
2022-08-09T07:40:20.612Z,7.95
2022-08-09T07:42:58.864Z,7.25
2022-08-09T07:45:37.901Z,7.22
2022-08-09T07:48:28.836Z,7.28
2022-08-09T07:51:03.200Z,6.75
2022-08-09T07:54:06.237Z,6.95
2022-08-09T07:56:34.040Z,7.28
2022-08-09T07:59:12.366Z,6.78
2022-08-09T08:01:53.115Z,7.45
2022-08-09T08:04:21.030Z,6.43
2022-08-09T08:07:15.173Z,6.85
2022-08-09T08:10:08.525Z,5.88
2022-08-09T08:12:43.158Z,5.95
2022-08-09T08:17:58.428Z,6.13
2022-08-09T08:20:32.666Z,7.10
2022-08-09T08:23:16.435Z,6.45
2022-08-09T08:25:49.812Z,5.95
2022-08-09T08:28:25.985Z,5.80
2022-08-09T08:31:13.928Z,5.32
2022-08-09T08:33:53.891Z,5.25
2022-08-09T08:36:29.593Z,5.15
2022-08-09T08:39:00.295Z,5.13
2022-08-09T08:41:50.528Z,5.88
2022-08-09T08:44:28.820Z,5.20
2022-08-09T08:47:12.307Z,5.57
2022-08-09T08:49:49.876Z,4.90
2022-08-09T08:55:10.932Z,5.78
2022-08-09T08:57:44.040Z,5.15
2022-08-09T09:00:34.048Z,5.35
2022-08-09T09:03:11.426Z,5.43
2022-08-09T09:05:58.211Z,5.50
2022-08-09T09:08:40.223Z,5.72
2022-08-09T09:11:17.579Z,5.20
2022-08-09T09:13:55.587Z,5.32
2022-08-09T09:16:34.571Z,5.82
2022-08-09T09:19:22.610Z,5.10
2022-08-09T09:21:59.616Z,5.05
2022-08-09T09:24:37.791Z,5.10
2022-08-09T09:27:09.271Z,5.18
2022-08-09T09:30:10.739Z,5.00
2022-08-09T09:32:40.851Z,4.50
2022-08-09T09:35:15.679Z,4.80
2022-08-09T09:37:46.094Z,4.93
2022-08-09T09:40:13.514Z,4.97
2022-08-09T09:42:58.833Z,4.68
2022-08-09T09:45:29.568Z,4.70
2022-08-09T09:48:04.254Z,5.07
2022-08-09T09:50:50.552Z,4.43
2022-08-09T09:53:43.834Z,4.95
2022-08-09T09:56:20.061Z,5.00
2022-08-09T09:58:59.061Z,4.43
2022-08-09T10:01:38.101Z,4.10
2022-08-09T10:04:22.992Z,4.40
2022-08-09T10:07:03.349Z,3.60
2022-08-09T10:09:54.919Z,3.55
2022-08-09T10:12:43.547Z,3.67
2022-08-09T10:15:50.657Z,3.63
2022-08-09T10:18:13.081Z,4.20
2022-08-09T10:20:44.581Z,3.40
2022-08-09T10:23:21.091Z,3.45
2022-08-09T10:26:07.218Z,3.42
2022-08-09T10:28:41.791Z,3.10
2022-08-09T10:34:10.673Z,3.10
2022-08-09T10:36:50.941Z,3.38
2022-08-09T10:39:20.427Z,3.05
2022-08-09T10:41:50.852Z,3.55
2022-08-09T10:44:22.932Z,2.92
2022-08-09T10:48:16.570Z,3.60
2022-08-09T10:51:01.718Z,3.20
2022-08-09T10:54:09.997Z,3.97
2022-08-09T10:56:42.848Z,3.08
2022-08-09T10:59:55.385Z,3.72
2022-08-09T11:03:14.570Z,3.85
2022-08-09T11:05:30.006Z,3.40
2022-08-09T11:08:47.066Z,3.53
2022-08-09T11:11:19.098Z,4.25
2022-08-09T11:14:38.402Z,3.95
2022-08-09T11:17:35.026Z,4.40
2022-08-09T11:20:23.058Z,5.90
2022-08-09T11:22:56.731Z,6.22
2022-08-09T11:25:47.906Z,5.93
2022-08-09T11:28:53.327Z,5.43
2022-08-09T11:31:43.514Z,6.30
2022-08-09T11:34:28.124Z,6.03
2022-08-09T11:36:59.574Z,6.18
2022-08-09T11:39:37.815Z,6.03
2022-08-09T11:42:14.602Z,6.10
2022-08-09T11:44:50.102Z,6.85
2022-08-09T11:47:19.776Z,6.40
2022-08-09T11:50:56.318Z,6.80
2022-08-09T11:53:58.728Z,6.40
2022-08-09T11:55:53.644Z,5.85
2022-08-09T11:58:48.086Z,5.75
2022-08-09T12:01:37.874Z,5.20
2022-08-09T12:04:23.928Z,5.60
2022-08-09T12:07:16.287Z,5.80
2022-08-09T12:09:50.848Z,6.20
2022-08-09T12:12:20.297Z,6.83
2022-08-09T12:15:07.622Z,8.02
2022-08-09T12:17:43.430Z,7.88
2022-08-09T12:20:16.567Z,7.10
2022-08-09T12:22:56.431Z,5.88
2022-08-09T12:25:37.951Z,5.57
2022-08-09T12:28:59.288Z,5.65
2022-08-09T12:33:58.381Z,8.00
2022-08-09T12:36:33.596Z,6.03
2022-08-09T12:39:02.290Z,4.97
2022-08-09T12:41:38.977Z,4.65
2022-08-09T12:44:10.175Z,4.80
2022-08-09T12:46:49.208Z,5.00
2022-08-09T12:49:20.978Z,5.00
2022-08-09T12:52:01.990Z,5.63
2022-08-09T12:55:03.183Z,5.60
2022-08-09T12:57:40.840Z,5.68
2022-08-09T13:00:25.935Z,5.03
2022-08-09T13:02:58.831Z,5.35
2022-08-09T13:05:35.530Z,5.50
2022-08-09T13:08:21.212Z,5.03
2022-08-09T13:11:23.348Z,5.07
2022-08-09T13:14:41.458Z,5.03
2022-08-09T13:16:47.154Z,4.75
2022-08-09T13:20:09.908Z,4.03
2022-08-09T13:23:01.403Z,4.03
2022-08-09T13:25:55.003Z,3.58
2022-08-09T13:28:35.592Z,4.10
2022-08-09T13:32:13.951Z,3.40
2022-08-09T13:34:02.228Z,3.03
2022-08-09T13:36:42.561Z,3.15
2022-08-09T13:41:51.667Z,3.50
2022-08-09T13:42:11.042Z,3.80
2022-08-09T13:44:49.238Z,3.63
2022-08-09T13:47:31.090Z,3.40
2022-08-09T13:50:30.072Z,3.80
2022-08-09T13:52:58.325Z,3.28
2022-08-09T13:55:28.889Z,3.50
2022-08-09T13:57:58.507Z,3.45
2022-08-09T14:00:30.497Z,3.20
2022-08-09T14:03:03.249Z,3.28
2022-08-09T14:06:00.291Z,3.78
2022-08-09T14:08:31.877Z,3.53
2022-08-09T14:11:03.446Z,3.22
2022-08-09T14:14:22.319Z,3.10
2022-08-09T14:16:29.061Z,3.72
2022-08-09T14:18:59.703Z,3.20
2022-08-09T14:21:32.398Z,3.20
2022-08-09T14:24:05.554Z,3.70
2022-08-09T14:26:39.951Z,3.53
2022-08-09T14:29:25.674Z,3.83
2022-08-09T14:32:04.549Z,3.50
2022-08-09T14:34:41.039Z,3.92
2022-08-09T14:37:12.959Z,3.88
2022-08-09T14:39:48.422Z,3.53
2022-08-09T14:42:31.030Z,3.67
2022-08-09T14:46:39.643Z,3.40
2022-08-09T14:47:57.937Z,3.17
2022-08-09T14:50:37.128Z,3.28
2022-08-09T14:53:14.071Z,4.07
2022-08-09T14:55:50.100Z,3.70
2022-08-09T14:58:19.883Z,3.22
2022-08-09T15:00:50.951Z,3.25
2022-08-09T15:03:21.055Z,3.33
2022-08-09T15:05:52.269Z,3.10
2022-08-09T15:08:23.989Z,3.88
2022-08-09T15:11:01.222Z,3.17
2022-08-09T15:13:48.395Z,3.30
2022-08-09T15:16:23.895Z,3.30
2022-08-09T15:18:59.722Z,3.20
2022-08-09T15:21:54.744Z,3.70
2022-08-09T15:24:27.088Z,3.20
2022-08-09T15:26:58.074Z,3.50
2022-08-09T15:30:48.279Z,4.55
2022-08-09T15:32:29.764Z,4.70
2022-08-09T15:35:01.935Z,3.97
2022-08-09T15:37:56.805Z,5.35
2022-08-09T15:40:44.377Z,3.47
2022-08-09T15:43:14.038Z,6.55
2022-08-09T15:46:07.528Z,4.97
2022-08-09T15:48:32.790Z,3.80
2022-08-09T15:51:02.349Z,4.55
2022-08-09T15:54:03.906Z,3.75
2022-08-09T15:56:35.637Z,3.78
2022-08-09T15:59:05.266Z,3.25
2022-08-09T16:01:36.074Z,3.60
2022-08-09T16:04:03.922Z,3.15
2022-08-09T16:06:34.919Z,3.47
2022-08-09T16:09:05.457Z,3.63
2022-08-09T16:11:34.675Z,3.92
2022-08-09T16:14:14.138Z,3.88
2022-08-09T16:16:48.204Z,4.43
2022-08-09T16:19:19.428Z,4.35
2022-08-09T16:21:52.014Z,3.78
2022-08-09T16:24:33.555Z,4.00
2022-08-09T16:27:04.909Z,3.40
2022-08-09T16:29:50.376Z,3.97
2022-08-09T16:32:33.942Z,3.85
2022-08-09T16:35:02.432Z,3.78
2022-08-09T16:37:53.061Z,3.30
2022-08-09T16:40:29.480Z,3.45
2022-08-09T16:43:07.082Z,3.22
2022-08-09T16:45:34.546Z,3.35
2022-08-09T16:48:39.892Z,3.35
2022-08-09T16:50:59.546Z,3.80
2022-08-09T16:53:34.736Z,3.20
2022-08-09T16:56:09.712Z,3.70
2022-08-09T16:58:42.503Z,3.90
2022-08-09T17:01:24.563Z,3.80
2022-08-09T17:03:54.668Z,4.15
2022-08-09T17:06:31.215Z,3.47
2022-08-09T17:09:17.801Z,4.07
2022-08-09T17:11:52.368Z,4.82
2022-08-09T17:14:26.945Z,4.30
2022-08-09T17:17:03.255Z,5.35
2022-08-09T17:20:05.943Z,4.78
2022-08-09T17:22:23.926Z,5.15
2022-08-09T17:24:54.819Z,5.05
2022-08-09T17:27:28.597Z,4.85
2022-08-09T17:29:56.274Z,5.05
2022-08-09T17:32:26.752Z,5.45
2022-08-09T17:35:10.988Z,4.68
2022-08-09T17:38:14.337Z,5.65
2022-08-09T17:40:29.882Z,6.00
2022-08-09T17:42:59.132Z,6.60
2022-08-09T17:46:01.508Z,7.32
2022-08-09T17:48:16.051Z,6.93
2022-08-09T17:50:48.756Z,7.38
2022-08-09T17:53:27.536Z,7.78
2022-08-09T17:56:04.750Z,7.28
2022-08-09T17:58:35.571Z,6.47
2022-08-09T18:01:03.172Z,7.68
2022-08-09T18:03:31.872Z,7.30
2022-08-09T18:06:00.808Z,6.95
2022-08-09T18:08:29.215Z,7.35
2022-08-09T18:11:02.331Z,7.78
2022-08-09T18:13:39.445Z,7.22
2022-08-09T18:16:11.942Z,7.35
2022-08-09T18:18:43.235Z,6.75
2022-08-09T18:21:23.538Z,8.13
2022-08-09T18:24:10.173Z,6.97
2022-08-09T18:26:46.065Z,9.15
2022-08-09T18:30:38.916Z,6.93
2022-08-09T18:32:05.222Z,6.80
2022-08-09T18:34:37.582Z,6.80
2022-08-09T18:37:10.574Z,6.03
2022-08-09T18:39:57.675Z,6.57
2022-08-09T18:42:31.899Z,7.25
2022-08-09T18:45:01.374Z,7.85
2022-08-09T18:47:37.526Z,7.43
2022-08-09T18:50:09.945Z,6.40
2022-08-09T18:52:38.942Z,7.40
2022-08-09T18:55:13.694Z,6.22
2022-08-09T18:57:45.318Z,7.30
2022-08-09T19:00:16.506Z,7.00
2022-08-09T19:02:50.903Z,7.77
2022-08-09T19:05:28.776Z,8.57
2022-08-09T19:08:10.786Z,8.13
2022-08-09T19:10:41.529Z,8.20
2022-08-09T19:13:22.270Z,8.20
2022-08-09T19:15:55.753Z,8.13
2022-08-09T19:18:33.291Z,8.48
2022-08-09T19:21:10.614Z,8.23
2022-08-09T19:24:37.397Z,8.75
2022-08-09T19:26:32.430Z,8.10
2022-08-09T19:29:15.082Z,8.18
2022-08-09T19:31:49.377Z,6.95
2022-08-09T19:34:22.725Z,6.57
2022-08-09T19:36:53.546Z,5.90
2022-08-09T19:39:43.988Z,5.93
2022-08-09T19:42:14.660Z,6.10
2022-08-09T19:44:50.631Z,6.40
2022-08-09T19:47:22.767Z,5.82
2022-08-09T19:50:07.498Z,6.35
2022-08-09T19:52:49.787Z,5.00
2022-08-09T19:55:25.722Z,5.40
2022-08-09T19:57:58.573Z,5.50
2022-08-09T20:00:26.017Z,5.03
2022-08-09T20:04:16.690Z,5.65
2022-08-09T20:05:46.951Z,5.40
2022-08-09T20:08:33.293Z,5.32
2022-08-09T20:11:05.114Z,6.47
2022-08-09T20:13:37.150Z,5.15
2022-08-09T20:16:35.160Z,5.50
2022-08-09T20:19:42.580Z,5.18
2022-08-09T20:21:56.521Z,4.97
2022-08-09T20:24:29.501Z,5.28
2022-08-09T20:27:08.437Z,5.82
2022-08-09T20:29:38.598Z,6.18
2022-08-09T20:32:30.414Z,6.82
2022-08-09T20:34:57.198Z,6.55
2022-08-09T20:37:25.285Z,6.32
2022-08-09T20:40:15.690Z,6.28
2022-08-09T20:42:53.136Z,6.43
2022-08-09T20:45:59.462Z,6.88
2022-08-09T20:48:21.068Z,6.60
2022-08-09T20:50:54.323Z,6.55
2022-08-09T20:53:37.174Z,6.50
2022-08-09T20:56:19.916Z,6.72
2022-08-09T20:58:57.760Z,6.22
2022-08-09T21:01:34.197Z,6.75
2022-08-09T21:05:54.548Z,7.18
2022-08-09T21:07:12.503Z,6.30
2022-08-09T21:09:56.669Z,6.88
2022-08-09T21:15:15.603Z,6.50
2022-08-09T21:18:24.810Z,7.30
2022-08-09T21:20:32.961Z,8.13
2022-08-09T21:23:04.548Z,7.30
2022-08-09T21:25:55.706Z,7.57
2022-08-09T21:28:34.344Z,7.70
2022-08-09T21:31:13.598Z,6.97
2022-08-09T21:33:50.659Z,7.10
2022-08-09T21:36:25.757Z,6.45
2022-08-09T21:38:58.011Z,6.78
2022-08-09T21:42:05.075Z,7.47
2022-08-09T21:44:33.444Z,6.63
2022-08-09T21:47:07.828Z,6.35
2022-08-09T21:49:42.602Z,5.93
2022-08-09T21:52:14.704Z,6.57
2022-08-09T21:54:50.663Z,6.32
2022-08-09T21:57:38.971Z,7.32
2022-08-09T22:00:25.822Z,6.15
2022-08-09T22:02:58.953Z,6.63
2022-08-09T22:05:35.421Z,7.28
2022-08-09T22:08:13.933Z,6.78
2022-08-09T22:11:01.123Z,6.40
2022-08-09T22:13:34.892Z,6.70
2022-08-09T22:16:08.697Z,7.10
2022-08-09T22:18:53.351Z,6.05
2022-08-09T22:21:44.736Z,6.18
2022-08-09T22:24:17.226Z,6.15
2022-08-09T22:26:52.172Z,6.28
2022-08-09T22:29:25.556Z,6.25
2022-08-09T22:31:57.980Z,6.05
2022-08-09T22:34:27.265Z,5.88
2022-08-09T22:36:56.282Z,6.00
2022-08-09T22:39:55.448Z,6.72
2022-08-09T22:42:21.198Z,6.35
2022-08-09T22:48:06.133Z,6.53
2022-08-09T22:48:14.136Z,6.72
2022-08-09T22:50:28.007Z,6.28
2022-08-09T22:52:58.235Z,6.50
2022-08-09T22:55:39.774Z,5.82
2022-08-09T22:58:20.461Z,5.72
2022-08-09T23:01:04.049Z,8.43
2022-08-09T23:04:04.183Z,6.45
2022-08-09T23:06:35.714Z,6.32
2022-08-09T23:09:07.253Z,6.30
2022-08-09T23:11:37.389Z,6.22
2022-08-09T23:14:10.027Z,8.07
2022-08-09T23:16:37.830Z,6.50
2022-08-09T23:19:05.320Z,6.55
2022-08-09T23:21:33.886Z,6.65
2022-08-09T23:24:06.039Z,6.60
2022-08-09T23:26:38.352Z,6.15
2022-08-09T23:29:11.249Z,8.48
2022-08-09T23:31:38.684Z,6.90
2022-08-09T23:34:09.092Z,7.70
2022-08-09T23:36:36.758Z,6.53
2022-08-09T23:39:06.528Z,6.50
2022-08-09T23:41:34.571Z,7.65
2022-08-09T23:44:02.899Z,6.68
2022-08-09T23:46:31.520Z,6.43
2022-08-09T23:49:00.401Z,6.80
2022-08-09T23:51:28.464Z,6.50
2022-08-09T23:54:01.993Z,6.22
2022-08-09T23:56:52.118Z,5.35
2022-08-09T23:59:23.637Z,5.70
